RX-LINK.COM
Contents of the /files/ folder

Please choose a file/folder to view.

Name Bytes KB Attributes Ext Type Date Time
1234 N/A N/A ---- Directory 10/1/2015 2:05:01 PM
barcode N/A N/A ---- Directory 5/9/2014 4:09:18 PM
bruno N/A N/A ---- Directory 5/9/2014 4:13:53 PM
cabs N/A N/A ---- Directory 5/9/2014 4:14:00 PM
DocumentationRxLinkHL7 N/A N/A ---- Directory 5/9/2014 3:21:26 PM
fridayfx N/A N/A ---- Directory 5/9/2014 4:14:02 PM
gary N/A N/A ---- Directory 5/9/2014 3:21:53 PM
GTM N/A N/A ---- Directory 5/9/2014 3:28:45 PM
MDX N/A N/A ---- Directory 7/31/2017 8:20:48 AM
PSH Backup N/A N/A ---- Directory 5/9/2014 3:28:50 PM
RxCDemoP1 N/A N/A ---- Directory 5/9/2014 4:18:59 PM
RxCDemoP2 N/A N/A ---- Directory 5/9/2014 4:22:54 PM
RxLCKODoc N/A N/A ---- Directory 5/9/2014 3:36:47 PM
RxLink_Install_Files N/A N/A ---- Directory 7/10/2018 11:14:38 AM
Ryan N/A N/A ---- Directory 12/10/2015 10:27:20 PM
scripts N/A N/A ---- Directory 5/9/2014 4:36:46 PM
Temp N/A N/A ---- Directory 6/28/2016 4:57:02 PM
_notes N/A N/A ---- Directory 5/9/2014 3:57:39 PM
2011-01-20 08.16 rxlink browser version 2_x demo.7z 49,391,988 48234K A--- 7Z 7Z File 5/9/2014 10:32:54 AM
2012-03-19 14.12 tutorial on how to set up the zebra printers.wmv 34,448,359 33641K A--- WMV WMV File 5/9/2014 10:32:46 AM
77.rtf 1,328,491 1297K A--- RTF Rich Text Document 5/9/2014 10:32:55 AM
acculine.doc 404,992 396K A--- DOC DOC File 5/9/2014 10:32:56 AM
adminba1.exe 22,865 22K A--- EXE Application 5/9/2014 10:32:56 AM
adminba2.exe 22,851 22K A--- EXE Application 5/9/2014 10:32:56 AM
adminbar.exe 18,013 18K A--- EXE Application 5/9/2014 10:32:57 AM
applpxyz.dbi 144 1K A--- DBI DBI File 5/9/2014 10:32:57 AM
autoexec.nt 487 1K A--- NT NT File 5/9/2014 10:32:57 AM
back.bat 232 1K A--- BAT Windows Batch File 5/9/2014 10:32:57 AM
bindleyw.doc 311,808 305K A--- DOC DOC File 5/9/2014 10:32:58 AM
bulkmeds.rtf 46,411,504 45324K A--- RTF Rich Text Document 5/9/2014 10:37:27 AM
cardinal update.txt 2,587,566 2527K A--- TXT Text Document 5/9/2014 10:33:15 AM
cardinal.doc 149,504 146K A--- DOC DOC File 5/9/2014 10:33:17 AM
charge code import.xls 17,408 17K A--- XLS XLS File 5/9/2014 10:33:18 AM
clientlib6.dll 368,640 360K A--- DLL Application extension 5/9/2014 10:33:21 AM
clientlib6.ver 70 1K A--- VER VER File 5/9/2014 10:33:21 AM
code39.s18 11,212 11K A--- S18 S18 File 5/9/2014 10:33:22 AM
code39.s22 17,247 17K A--- S22 S22 File 5/9/2014 10:33:22 AM
colum.zip 2,376 2K A--- ZIP Compressed (zipped) Folder 5/9/2014 10:33:23 AM
command.com 50,620 49K A--- COM MS-DOS Application 5/9/2014 10:33:24 AM
console.zip 2,299 2K A--- ZIP Compressed (zipped) Folder 6/28/2016 4:58:15 PM
conversationaugust82013.camrec 5,177,344 5056K A--- CAM CAMREC File 5/9/2014 10:34:08 AM
csutil.dll 393,216 384K A--- DLL Application extension 5/9/2014 10:34:16 AM
dbghelp.dll 163,088 159K A--- DLL Application extension 5/9/2014 10:34:18 AM
dditest.exe 22,944 22K A--- EXE Application 5/9/2014 10:34:19 AM
de10.zip 599,242 585K A--- ZIP Compressed (zipped) Folder 5/9/2014 10:34:25 AM
de2.zip 599,242 585K A--- ZIP Compressed (zipped) Folder 5/9/2014 10:34:30 AM
de3.zip 599,242 585K A--- ZIP Compressed (zipped) Folder 5/9/2014 10:34:34 AM
de4.zip 599,242 585K A--- ZIP Compressed (zipped) Folder 5/9/2014 10:34:38 AM
de5.zip 599,242 585K A--- ZIP Compressed (zipped) Folder 5/9/2014 10:34:42 AM
de6.zip 599,242 585K A--- ZIP Compressed (zipped) Folder 5/9/2014 10:34:46 AM
default.asp 4,912 5K A--- ASP ASP File 5/9/2014 10:34:47 AM
demessag.msg 92,895 91K A--- MSG MSG File 5/9/2014 10:34:48 AM
des.zip 599,243 585K A--- ZIP Compressed (zipped) Folder 5/9/2014 10:34:53 AM
diskda.zip 7,122 7K A--- ZIP Compressed (zipped) Folder 5/9/2014 10:34:53 AM
dmfixup.zip 402 1K A--- ZIP Compressed (zipped) Folder 5/9/2014 10:34:54 AM
dmimport2.zip 78,168 76K A--- ZIP Compressed (zipped) Folder 5/9/2014 10:34:55 AM
dpakbd.com 1,377 1K A--- COM MS-DOS Application 5/9/2014 10:34:55 AM
drugdata.dbi 190 1K A--- DBI DBI File 5/9/2014 10:34:56 AM
drugmasterexport.zip 45,336 44K A--- ZIP Compressed (zipped) Folder 5/9/2014 10:34:58 AM
echo.doc 12,982,784 12679K A--- DOC DOC File 5/9/2014 10:36:49 AM
entire.rtf 385,399 376K A--- RTF Rich Text Document 5/9/2014 10:36:53 AM
envoy.zip 2,192 2K A--- ZIP Compressed (zipped) Folder 5/9/2014 10:36:53 AM
eodw.bat 4,384 4K A--- BAT Windows Batch File 5/9/2014 10:36:54 AM
eodwkin.bat 6,160 6K A--- BAT Windows Batch File 5/9/2014 10:36:54 AM
export.zip 26,804 26K A--- ZIP Compressed (zipped) Folder 5/9/2014 10:36:55 AM
expwin.exe 17,574 17K A--- EXE Application 5/9/2014 10:36:55 AM
fias05.zip 111,359 109K A--- ZIP Compressed (zipped) Folder 5/9/2014 10:36:58 AM
fl.zip 30,861 30K A--- ZIP Compressed (zipped) Folder 5/9/2014 10:36:59 AM
flgrpt.zip 7,037 7K A--- ZIP Compressed (zipped) Folder 5/9/2014 10:37:00 AM
google chrome.lnk 2,370 2K A--- LNK Shortcut 5/9/2014 10:37:00 AM
gotoassist.exe 7,870,824 7686K A--- EXE Application 5/9/2014 10:37:56 AM
hards.exe 19,694 19K A--- EXE Application 5/9/2014 10:37:27 AM
hardst.exe 19,653 19K A--- EXE Application 5/9/2014 10:37:28 AM
hardstop.exe 32,714 32K A--- EXE Application 5/9/2014 10:37:29 AM
hl7 specifications.zip 24,396,831 23825K A--- ZIP Compressed (zipped) Folder 5/9/2014 10:40:07 AM
hl7nash.zip 22,179 22K A--- ZIP Compressed (zipped) Folder 5/9/2014 10:37:56 AM
hour.zip 5,411 5K A--- ZIP Compressed (zipped) Folder 5/9/2014 10:37:57 AM
hourly.exe 20,915 20K A--- EXE Application 5/9/2014 10:37:57 AM
hourpaaa.dbr 6,945 7K A--- DBR DBR File 5/9/2014 10:37:58 AM
howddi.zip 10,974 11K A--- ZIP Compressed (zipped) Folder 5/9/2014 10:37:59 AM
icd.txt 400,914 392K A--- TXT Text Document 5/9/2014 10:38:03 AM
import.zip 1,973 2K A--- ZIP Compressed (zipped) Folder 5/9/2014 10:38:04 AM
importdrugmaster.zip 42,382 41K A--- ZIP Compressed (zipped) Folder 5/9/2014 10:38:05 AM
intrpaaa.dbr 20,736 20K A--- DBR DBR File 5/9/2014 10:38:06 AM
ivhapaaa.dbr 11,065 11K A--- DBR DBR File 5/9/2014 10:38:07 AM
list.com 18,355 18K A--- COM MS-DOS Application 5/9/2014 10:38:08 AM
list.zip 12,854 13K A--- ZIP Compressed (zipped) Folder 5/9/2014 10:38:09 AM
lockedfiles.rtf 14,547,314 14206K A--- RTF Rich Text Document 5/9/2014 10:40:00 AM
manascii.exe 873,052 853K A--- EXE Application 5/9/2014 10:40:06 AM
manuf.sql 158 1K A--- SQL Microsoft SQL Server Query File 5/9/2014 10:40:07 AM
mar.zip 25,836 25K A--- ZIP Compressed (zipped) Folder 5/9/2014 10:40:07 AM
marfix.zip 26,273 26K A--- ZIP Compressed (zipped) Folder 5/9/2014 10:40:07 AM
maripaac.dbr 73,860 72K A--- DBR DBR File 5/9/2014 10:40:08 AM
marpatch.exe 40,659 40K A--- EXE Application 5/9/2014 10:40:08 AM
mckess.doc 229,376 224K A--- DOC DOC File 5/9/2014 10:40:09 AM
medispan.docx 453,825 443K A--- DOC Office Open XML Document 5/9/2014 10:40:11 AM
medispan.exe 917,290 896K A--- EXE Application 5/9/2014 10:40:13 AM
mod_icd9.sql 8,541 8K A--- SQL Microsoft SQL Server Query File 5/9/2014 10:40:12 AM
montana.csv 7,930 8K A--- CSV CSV File 5/9/2014 10:40:12 AM
monthmar.zip 16,836 16K A--- ZIP Compressed (zipped) Folder 5/9/2014 10:40:13 AM
mswinsck.zip 57,025 56K A--- ZIP Compressed (zipped) Folder 5/9/2014 10:40:14 AM
ndcchg.txt 122,915 120K A--- TXT Text Document 5/9/2014 10:40:14 AM
ndcchg1.txt 109,904 107K A--- TXT Text Document 5/9/2014 10:40:15 AM
new.txt 52,331 51K A--- TXT Text Document 5/9/2014 10:40:15 AM
newddi.zip 10,974 11K A--- ZIP Compressed (zipped) Folder 5/9/2014 10:40:15 AM
optedit.exe 96,316 94K A--- EXE Application 5/9/2014 10:40:15 AM
patch1.exe 37,379 37K A--- EXE Application 5/9/2014 10:40:15 AM
physord.zip 1,505 1K A--- ZIP Compressed (zipped) Folder 5/9/2014 10:40:15 AM
physpaag.cfe 519 1K A--- CFE CFE File 5/9/2014 10:40:15 AM
physpaag.dbr 1,563 2K A--- DBR DBR File 5/9/2014 10:40:15 AM
physpaag.tde 272 1K A--- TDE TDE File 5/9/2014 10:40:15 AM
pkunzip.exe 34,583 34K A--- EXE Application 5/9/2014 10:40:16 AM
pkzip.exe 42,552 42K A--- EXE Application 5/9/2014 10:40:16 AM
prchange.out 2,250,936 2198K A--- OUT OUT File 5/9/2014 10:40:24 AM
prinpaan.dbr 25,980 25K A--- DBR DBR File 5/9/2014 10:40:17 AM
printertest.exe 24,576 24K A--- EXE Application 5/9/2014 10:40:18 AM
prn2file.com 1,386 1K A--- COM MS-DOS Application 5/9/2014 10:40:18 AM
prof.exe 31,760 31K A--- EXE Application 5/9/2014 10:40:20 AM
prof2ed.exe 32,006 31K A--- EXE Application 5/9/2014 10:40:21 AM
profiles.zip 16,492 16K A--- ZIP Compressed (zipped) Folder 5/9/2014 10:40:22 AM
pyxipaau.dbr 60,288 59K A--- DBR DBR File 5/9/2014 10:40:24 AM
pyxis hl7-specs.zip 585,960 572K A--- ZIP Compressed (zipped) Folder 5/9/2014 10:40:27 AM
q.zip 3,565 3K A--- ZIP Compressed (zipped) Folder 5/9/2014 10:40:25 AM
r28864up.exe 3,689,307 3603K A--- EXE Application 5/9/2014 10:40:53 AM
repapaad.dbr 10,411 10K A--- DBR DBR File 5/9/2014 10:40:28 AM
richtx32.ocx 212,240 207K A--- OCX ActiveX control 5/9/2014 10:40:30 AM
rxconnect ver 2.3.zip 20,568,715 20087K A--- ZIP Compressed (zipped) Folder 5/9/2014 10:42:35 AM
rxconnect_cko_data_73_sept2013.zip 625,486,376 610827K A--- ZIP Compressed (zipped) Folder 5/9/2014 11:54:44 AM
rxconnect_cko_server_7_may2013 (updated).zip 617,153,119 602689K A--- ZIP Compressed (zipped) Folder 5/9/2014 11:54:54 AM
rxconnect_cko_server_may2013.zip 617,030,546 602569K A--- ZIP Compressed (zipped) Folder 5/9/2014 1:07:08 PM
rxformularyws.msi 356,864 349K A--- MSI Windows Installer Package 5/9/2014 11:55:18 AM
rxgather.ex2 53,248 52K A--- EX2 EX2 File 5/9/2014 11:55:19 AM
rxgather.exe 57,344 56K A--- EXE Application 5/9/2014 11:55:20 AM
rxgather.old 53,248 52K A--- OLD OLD File 5/9/2014 11:55:21 AM
rxl.txt 27,481 27K A--- TXT Text Document 5/9/2014 11:55:22 AM
rxl864up.exe 930,438 909K A--- EXE Application 5/9/2014 11:55:29 AM
rxl865up.exe 438,202 428K A--- EXE Application 5/9/2014 11:55:33 AM
rxl866ful.exe 4,774,934 4663K A--- EXE Application 5/9/2014 11:56:10 AM
rxl866t1.exe 1,139,639 1113K A--- EXE Application 5/9/2014 11:56:17 AM
rxl866up.11608 1,139,639 1113K A--- 116 11608 File 5/9/2014 11:56:26 AM
rxl866up.1808 1,129,612 1103K A--- 180 1808 File 5/9/2014 11:56:34 AM
rxl866up.225 1,177,135 1150K A--- 225 225 File 5/9/2014 11:56:48 AM
rxl866up.exe 1,210,992 1183K A--- EXE Application 5/9/2014 11:56:57 AM
rxl866up.old 1,129,622 1103K A--- OLD OLD File 5/9/2014 11:57:06 AM
rxlbar.zip 217,302 212K A--- ZIP Compressed (zipped) Folder 5/9/2014 11:57:08 AM
rxlerr.zip 898,559 877K A--- ZIP Compressed (zipped) Folder 5/9/2014 11:57:14 AM
rxlicon.ico 630 1K A--- ICO Icon 5/9/2014 11:57:14 AM
rxlink windows browser network diagram (2).jpg 47,315 46K A--- JPG JPEG image 5/9/2014 11:57:15 AM
rxlink.exe 5,120,000 5000K A--- EXE Application 5/9/2014 11:57:49 AM
rxlink.ico 3,310 3K A--- ICO Icon 5/9/2014 11:57:50 AM
rxlink.txt 60,630 59K A--- TXT Text Document 5/9/2014 11:57:51 AM
rxlinkckoserviceinstall.zip 181,207 177K A--- ZIP Compressed (zipped) Folder 5/9/2014 11:57:54 AM
rxlinkerdeploy1208.zip 153,589 150K A--- ZIP Compressed (zipped) Folder 5/9/2014 11:57:56 AM
rxlinkerver224.doc 65,536 64K A--- DOC DOC File 5/9/2014 11:57:57 AM
rxlinkwn.zip 2,033 2K A--- ZIP Compressed (zipped) Folder 5/9/2014 11:57:58 AM
rxlink_cko64_data_jan_2014.zip 470,965,856 459928K A--- ZIP Compressed (zipped) Folder 5/9/2014 12:53:56 PM
rxlink_cko_server_614b11.zip 25,926,886 25319K A--- ZIP Compressed (zipped) Folder 5/9/2014 12:58:11 PM
rxlkr224.zip 131,141 128K A--- ZIP Compressed (zipped) Folder 5/9/2014 12:58:12 PM
rxmenus.exe 644,756 630K A--- EXE Application 5/9/2014 12:58:18 PM
rxwait.exe 40,960 40K A--- EXE Application 5/9/2014 12:58:19 PM
rxwin.zip 2,185 2K A--- ZIP Compressed (zipped) Folder 5/9/2014 12:58:19 PM
rxwinexp.exe 17,534 17K A--- EXE Application 5/9/2014 12:58:20 PM
rx_connect_cko_data_74_apr2014.zip 688,062,167 671936K A--- ZIP Compressed (zipped) Folder 5/9/2014 2:25:24 PM
rx_connect_cko_server_74_sep_2013.zip 626,831,597 612140K A--- ZIP Compressed (zipped) Folder 5/9/2014 2:14:38 PM
rx_link_cko_data_614_apr_2014.zip 474,710,918 463585K A--- ZIP Compressed (zipped) Folder 5/9/2014 3:10:16 PM
setup.msi 24,265,216 23697K A--- MSI Windows Installer Package 7/10/2018 11:39:07 AM
siemens.exe 28,176 28K A--- EXE Application 5/9/2014 3:16:58 PM
spec.exe 38,600 38K A--- EXE Application 5/9/2014 3:16:59 PM
staff.htm 872 1K A--- HTM HTML Document 5/9/2014 3:17:00 PM
staff.swf 694,386 678K A--- SWF SWF File 5/9/2014 3:17:07 PM
suremed.zip 8,883 9K A--- ZIP Compressed (zipped) Folder 5/9/2014 3:17:07 PM
test.txt 5 1K A--- TXT Text Document 5/9/2014 3:17:08 PM
time guidelines for pain reassessment.doc 58,880 58K A--- DOC DOC File 5/9/2014 3:17:09 PM
time guidelines for pain reassessment.docx 12,465 12K A--- DOC Office Open XML Document 5/9/2014 3:17:10 PM
tools5.exe 147,758 144K A--- EXE Application 5/9/2014 3:17:12 PM
update cko data.pdf 622,587 608K A--- PDF PDF File 5/9/2014 3:17:17 PM
version.exe 15,888 16K A--- EXE Application 5/9/2014 3:17:17 PM
walsh.doc 820,224 801K A--- DOC DOC File 5/9/2014 3:17:24 PM
web.config 162 1K A--- CON XML Configuration File 5/9/2014 3:17:24 PM
wintrndn.zip 1,677 2K A--- ZIP Compressed (zipped) Folder 5/9/2014 3:17:24 PM
works.txt 2,208,701 2157K A--- TXT Text Document 5/9/2014 3:17:42 PM
wsp_rel.exe 646,144 631K A--- EXE Application 5/9/2014 3:17:47 PM
ztermdef.dbz 1,088 1K A--- DBZ DBZ File 5/9/2014 3:17:48 PM